Latest Weather Observations for Gladstone Airport

IDQ60801

Issued at 6:32 am EST Wednesday 24 October 2018 (issued every 10 minutes, with the page automatically refreshed every 10 minutes)

About weather observations | Map of weather stations | Latest weather observations for QLD | Other Formats
Station Details ID: 039326 Name: GLADSTONE AIRPORT Lat: -23.87 Lon: 151.22 Height: 16.6 m
Data from the previous 72 hours. | See also: Recent months at Gladstone Airport
Date/Time
EST
Temp
°C
App
Temp
°C
Dew
Point
°C
Rel
Hum
%
Delta-T
°C
Wind Press
QNH
hPa
Press
MSL
hPa
Rain since
9am
mm
Dir  Spd
km/h
Gust
km/h
Spd
kts
Gust
kts
24/06:30am 22.5 24.7 19.5 83 1.9 S 7 9 4 5 1016.9 1016.9 0.0
24/06:00am 20.8 22.8 19.1 90 1.1 SSW 7 9 4 5 1016.5 1016.5 0.0
24/05:30am 20.3 22.6 18.6 90 1.1 S 4 6 2 3 1016.0 1016.0 0.0
24/05:00am 20.4 23.4 18.5 89 1.2 CALM 0 0 0 0 1015.9 1015.9 0.0
24/04:30am 20.7 22.6 18.6 88 1.3 SSE 6 7 3 4 1015.6 1015.6 0.0
24/04:00am 21.0 24.2 18.9 88 1.3 CALM 0 0 0 0 1015.3 1015.3 0.0
24/03:30am 21.2 24.4 18.8 86 1.5 CALM 0 6 0 3 1015.2 1015.2 0.0
24/03:00am 21.4 23.2 18.8 85 1.6 S 7 9 4 5 1015.2 1015.2 0.0
24/02:30am 22.0 24.2 19.2 84 1.8 SSE 6 7 3 4 1015.1 1015.1 0.0
24/02:00am 21.9 24.0 18.9 83 1.9 SSE 6 7 3 4 1015.1 1015.1 0.0
24/01:30am 22.6 24.8 19.2 81 2.2 SE 6 9 3 5 1015.2 1015.2 0.0
24/01:00am 22.8 25.1 19.4 81 2.2 SE 6 7 3 4 1015.4 1015.4 0.0
24/12:30am 23.2 25.6 19.6 80 2.3 ESE 6 9 3 5 1015.7 1015.7 0.0
24/12:00am 23.2 25.4 19.6 80 2.3 E 7 9 4 5 1016.1 1016.1 0.0
 
Date/Time
EST
Temp
°C
App
Temp
°C
Dew
Point
°C
Rel
Hum
%
Delta-T
°C
Wind Press
QNH
hPa
Press
MSL
hPa
Rain since
9am
mm
Dir  Spd
km/h
Gust
km/h
Spd
kts
Gust
kts
23/11:30pm 23.2 24.6 19.6 80 2.3 ENE 11 13 6 7 1016.2 1016.2 0.0
23/11:00pm 23.3 25.2 19.7 80 2.3 ENE 9 11 5 6 1016.4 1016.4 0.0
23/10:30pm 23.3 25.3 19.9 81 2.2 ENE 9 13 5 7 1016.5 1016.5 0.0
23/10:00pm 23.4 25.4 20.0 81 2.2 ENE 9 11 5 6 1016.6 1016.6 0.0
23/09:30pm 23.5 25.0 19.8 80 2.4 E 11 15 6 8 1016.2 1016.2 0.0
23/09:00pm 23.6 25.2 19.9 80 2.4 NE 11 13 6 7 1016.1 1016.1 0.0
23/08:30pm 23.7 25.7 20.0 80 2.4 ENE 9 13 5 7 1016.0 1016.0 0.0
23/08:00pm 23.8 25.0 19.9 79 2.5 ENE 13 17 7 9 1015.8 1015.8 0.0
23/07:30pm 23.8 25.0 19.9 79 2.5 ENE 13 17 7 9 1015.5 1015.5 0.0
23/07:00pm 24.0 24.8 19.9 78 2.6 ENE 15 17 8 9 1015.2 1015.2 0.0
23/06:33pm 24.1 25.0 20.0 78 2.7 ENE 15 17 8 9 1014.8 1014.8 0.0
23/06:30pm 24.1 25.0 20.0 78 2.7 ENE 15 17 8 9 1014.8 1014.8 0.0
23/06:06pm 24.3 24.8 20.0 77 2.8 ENE 17 20 9 11 1014.5 1014.5 0.0
23/06:00pm 24.4 25.3 20.1 77 2.8 ENE 15 20 8 11 1014.4 1014.4 0.0
23/05:58pm 24.4 25.3 20.1 77 2.8 ENE 15 20 8 11 1014.4 1014.4 0.0
23/05:30pm 24.5 25.0 20.0 76 2.9 NE 17 22 9 12 1014.0 1014.0 0.0
23/05:29pm 24.6 25.0 19.9 75 3.0 NE 17 22 9 12 1014.0 1014.0 0.0
23/05:00pm 25.1 25.6 20.1 74 3.2 NE 17 24 9 13 1013.6 1013.6 0.0
23/04:30pm 24.8 24.8 19.8 74 3.2 NE 19 24 10 13 1013.5 1013.5 0.0
23/04:00pm 24.9 24.9 19.7 73 3.4 NE 19 24 10 13 1013.2 1013.2 0.0
23/03:30pm 25.6 25.3 19.5 69 3.9 NE 20 28 11 15 1013.3 1013.3 0.0
23/03:00pm 26.2 25.4 20.1 69 4.0 NE 24 32 13 17 1013.0 1013.0 0.0
23/02:30pm 27.0 26.9 19.9 65 4.6 NE 20 26 11 14 1013.3 1013.3 0.0
23/02:00pm 27.3 26.0 19.1 61 5.3 NE 24 30 13 16 1013.5 1013.5 0.0
23/01:30pm 27.8 27.3 19.1 59 5.6 ENE 20 28 11 15 1013.9 1013.9 0.0
23/01:00pm 27.6 26.9 18.3 57 5.9 NE 19 26 10 14 1014.3 1014.3 0.0
23/12:30pm 27.8 27.0 18.5 57 5.9 ENE 20 26 11 14 1014.6 1014.6 0.0
23/12:00pm 28.2 27.8 18.9 57 6.0 ENE 19 26 10 14 1015.3 1015.3 0.0
23/11:30am 27.1 26.7 18.1 58 5.7 NE 17 24 9 13 1015.8 1015.8 0.0
23/11:00am 27.6 27.7 19.1 59 5.5 NE 17 24 9 13 1016.1 1016.1 0.0
23/10:30am 27.1 27.5 18.9 61 5.3 ENE 15 22 8 12 1016.5 1016.5 0.0
23/10:00am 26.7 27.4 19.6 65 4.6 NE 15 20 8 11 1016.6 1016.6 0.0
23/09:30am 26.3 26.8 18.4 61 5.0 NE 13 20 7 11 1016.7 1016.7 0.0
23/09:00am 25.5 28.1 20.1 72 3.5 E 6 11 3 6 1016.7 1016.7 0.0
23/08:30am 24.0 26.4 19.7 77 2.8 SE 6 11 3 6 1016.7 1016.7 0.0
23/08:00am 24.3 25.9 19.1 73 3.3 ENE 9 13 5 7 1016.7 1016.7 0.0
23/07:30am 25.1 25.5 19.0 69 3.9 E 15 20 8 11 1016.4 1016.4 0.0
23/07:00am 24.0 26.2 19.5 76 2.9 S 7 11 4 6 1016.2 1016.2 0.0
23/06:30am 23.3 25.5 19.7 80 2.3 SE 7 9 4 5 1016.0 1016.0 0.0
23/06:00am 23.3 25.6 19.5 79 2.4 SE 6 7 3 4 1015.6 1015.6 0.0
23/05:30am 23.1 25.2 19.3 79 2.4 ENE 7 9 4 5 1015.1 1015.1 0.0
23/05:00am 23.1 24.7 19.1 78 2.5 E 9 11 5 6 1014.7 1014.7 0.0
23/04:30am 23.4 24.5 18.9 76 2.9 E 11 15 6 8 1014.6 1014.6 0.0
23/04:00am 23.3 24.6 19.2 78 2.6 E 11 15 6 8 1014.3 1014.3 0.0
23/03:30am 23.4 25.0 19.1 77 2.7 ENE 9 15 5 8 1014.2 1014.2 0.0
23/03:00am 23.4 24.6 19.1 77 2.7 ENE 11 17 6 9 1014.2 1014.2 0.0
23/02:30am 23.4 25.1 19.3 78 2.6 E 9 13 5 7 1014.0 1014.0 0.0
23/02:00am 23.4 24.2 19.1 77 2.7 E 13 20 7 11 1014.2 1014.2 0.0
23/01:30am 23.5 23.9 19.0 76 2.9 E 15 19 8 10 1014.4 1014.4 0.0
23/01:00am 23.6 24.8 19.1 76 2.9 ESE 11 17 6 9 1014.8 1014.8 0.0
23/12:30am 23.5 24.3 19.0 76 2.9 E 13 20 7 11 1015.1 1015.1 0.0
23/12:00am 23.7 23.7 19.0 75 3.0 E 17 22 9 12 1015.3 1015.3 0.0
 
Date/Time
EST
Temp
°C
App
Temp
°C
Dew
Point
°C
Rel
Hum
%
Delta-T
°C
Wind Press
QNH
hPa
Press
MSL
hPa
Rain since
9am
mm
Dir  Spd
km/h
Gust
km/h
Spd
kts
Gust
kts
22/11:30pm 23.7 24.9 19.0 75 3.0 E 11 15 6 8 1015.7 1015.7 0.0
22/11:00pm 24.0 24.1 19.1 74 3.1 E 17 24 9 13 1015.6 1015.6 0.0
22/10:30pm 23.7 24.4 18.8 74 3.1 ENE 13 19 7 10 1015.6 1015.6 0.0
22/10:00pm 23.8 25.6 18.7 73 3.2 E 7 9 4 5 1016.1 1016.1 0.0
22/09:30pm 23.8 24.5 18.9 74 3.1 ENE 13 19 7 10 1016.0 1016.0 0.0
22/09:00pm 23.7 24.5 19.0 75 3.0 ENE 13 19 7 10 1015.2 1015.2 0.0
22/08:30pm 23.6 25.0 18.7 74 3.1 ENE 9 11 5 6 1015.4 1015.4 0.0
22/08:00pm 23.6 24.1 18.3 72 3.3 E 13 17 7 9 1014.9 1014.9 0.0
22/07:30pm 23.7 24.1 18.1 71 3.5 ENE 13 20 7 11 1014.4 1014.4 0.0
22/07:00pm 23.9 23.9 18.1 70 3.6 ENE 15 19 8 10 1013.7 1013.7 0.0
22/06:30pm 24.0 23.8 18.4 71 3.5 ENE 17 22 9 12 1013.3 1013.3 0.0
22/06:00pm 24.1 23.9 18.5 71 3.5 ENE 17 20 9 11 1013.3 1013.3 0.0
22/05:30pm 24.7 23.6 17.4 64 4.5 ENE 19 26 10 14 1012.8 1012.8 0.0
22/05:00pm 25.0 23.8 17.5 63 4.7 ENE 20 26 11 14 1012.6 1012.6 0.0
22/04:30pm 25.1 24.2 18.3 66 4.3 NE 20 26 11 14 1012.3 1012.3 0.0
22/04:00pm 25.6 24.8 18.5 65 4.5 NNE 20 26 11 14 1012.2 1012.2 0.0
22/03:30pm 25.5 24.5 17.9 63 4.8 NE 20 26 11 14 1012.1 1012.1 0.0
22/03:00pm 25.7 24.3 17.9 62 4.9 NNE 22 30 12 16 1012.2 1012.2 0.0
22/02:30pm 26.4 25.0 18.0 60 5.3 NE 22 28 12 15 1012.4 1012.4 0.0
22/02:00pm 26.6 25.1 17.7 58 5.6 NE 22 28 12 15 1012.6 1012.6 0.0
22/01:30pm 27.5 26.3 17.4 54 6.4 NE 20 28 11 15 1012.8 1012.8 0.0
22/01:00pm 27.0 26.0 18.0 58 5.7 NNE 20 30 11 16 1013.0 1013.0 0.0
22/12:30pm 27.6 26.9 18.6 58 5.8 NE 20 24 11 13 1013.3 1013.3 0.0
22/12:00pm 28.0 26.9 17.8 54 6.5 NE 20 26 11 14 1013.8 1013.8 0.0
22/11:30am 27.3 27.4 17.5 55 6.2 NE 13 20 7 11 1014.2 1014.2 0.0
22/11:00am 26.8 26.3 17.0 55 6.1 NNE 15 20 8 11 1014.9 1014.9 0.0
22/10:30am 26.7 26.8 17.5 57 5.8 NNE 13 20 7 11 1015.3 1015.3 0.0
22/10:00am 26.4 26.5 17.5 58 5.6 N 13 20 7 11 1015.6 1015.6 0.0
22/09:30am 25.5 25.6 16.6 58 5.5 NNE 11 20 6 11 1015.7 1015.7 0.0
22/09:00am 25.6 25.5 17.0 59 5.3 NNE 13 20 7 11 1015.6 1015.6 0.0
22/08:30am 25.3 25.4 17.5 62 4.9 NNW 13 17 7 9 1015.6 1015.6 0.0
22/08:00am 24.9 25.2 17.9 65 4.4 NNE 13 19 7 10 1015.4 1015.4 0.0
22/07:30am 24.9 25.5 18.6 68 4.0 NNE 13 17 7 9 1015.1 1015.1 0.0
22/07:00am 24.3 25.2 18.5 70 3.7 NE 11 17 6 9 1015.1 1015.1 0.0
22/06:30am 23.6 26.2 18.5 73 3.2 NNW 2 9 1 5 1015.0 1015.0 0.0
22/06:00am 21.7 24.7 18.5 82 2.0 CALM 0 0 0 0 1014.8 1014.8 0.0
22/05:30am 21.2 24.1 18.2 83 1.9 CALM 0 0 0 0 1014.4 1014.4 0.0
22/05:00am 21.4 23.1 18.0 81 2.1 SW 6 7 3 4 1014.2 1014.2 0.0
22/04:30am 22.6 23.7 17.9 75 2.9 NE 9 15 5 8 1013.9 1013.9 0.0
22/04:00am 22.8 24.2 18.6 77 2.6 NE 9 11 5 6 1013.5 1013.5 0.0
22/03:30am 22.8 23.8 18.6 77 2.6 ENE 11 13 6 7 1013.3 1013.3 0.0
22/03:00am 22.8 24.2 18.6 77 2.6 NE 9 13 5 7 1013.4 1013.4 0.0
22/02:30am 22.9 23.8 18.4 76 2.8 ENE 11 15 6 8 1013.4 1013.4 0.0
22/02:00am 22.9 24.2 18.4 76 2.8 ENE 9 15 5 8 1013.4 1013.4 0.0
22/01:30am 22.9 23.6 18.9 78 2.5 ENE 13 17 7 9 1013.4 1013.4 0.0
22/01:00am 23.1 24.2 18.8 77 2.7 E 11 13 6 7 1014.0 1014.0 0.0
22/12:30am 23.1 23.9 19.1 78 2.5 NE 13 19 7 10 1014.1 1014.1 0.0
22/12:00am 23.0 24.3 19.2 79 2.4 ENE 11 15 6 8 1014.4 1014.4 0.0
 
Date/Time
EST
Temp
°C
App
Temp
°C
Dew
Point
°C
Rel
Hum
%
Delta-T
°C
Wind Press
QNH
hPa
Press
MSL
hPa
Rain since
9am
mm
Dir  Spd
km/h
Gust
km/h
Spd
kts
Gust
kts
21/11:30pm 23.2 24.5 19.2 78 2.5 NE 11 13 6 7 1014.5 1014.5 0.0
21/11:00pm 23.2 24.8 19.2 78 2.5 N 9 15 5 8 1014.5 1014.5 0.0
21/10:30pm 23.2 24.1 19.2 78 2.5 NNE 13 17 7 9 1013.9 1013.9 0.0
21/10:00pm 23.2 24.5 19.2 78 2.5 NNE 11 17 6 9 1014.1 1014.1 0.0
21/09:30pm 23.1 24.3 19.1 78 2.5 NE 11 17 6 9 1014.1 1014.1 0.0
21/09:00pm 23.1 24.7 19.1 78 2.5 NNE 9 11 5 6 1014.3 1014.3 0.0
21/08:30pm 23.1 24.6 18.8 77 2.7 NNE 9 13 5 7 1014.1 1014.1 0.0
21/08:00pm 23.2 24.5 18.5 75 3.0 NNE 9 15 5 8 1013.3 1013.3 0.0
21/07:30pm 23.3 23.7 18.2 73 3.2 N 13 17 7 9 1012.9 1012.9 0.0
21/07:00pm 23.4 23.3 17.8 71 3.5 N 15 20 8 11 1012.1 1012.1 0.0
21/06:30pm 23.8 23.8 17.3 67 4.0 N 13 17 7 9 1012.2 1012.2 0.0
21/06:00pm 24.3 24.3 17.1 64 4.5 N 13 19 7 10 1012.2 1012.2 0.0
21/05:30pm 25.3 24.5 16.2 57 5.6 NNE 15 20 8 11 1011.8 1011.8 0.0
21/05:00pm 26.3 25.0 16.8 56 5.9 NE 19 24 10 13 1011.4 1011.4 0.0
21/04:30pm 25.8 24.4 16.9 58 5.5 ENE 20 28 11 15 1011.3 1011.3 0.0
21/04:00pm 26.3 24.8 17.6 58 5.5 ENE 22 26 12 14 1011.3 1011.3 0.0
21/03:30pm 25.8 24.6 17.4 59 5.3 NE 20 28 11 15 1011.6 1011.6 0.0
21/03:00pm 26.3 25.1 17.4 58 5.6 ENE 20 30 11 16 1011.9 1011.9 0.0
21/02:30pm 27.0 25.4 17.5 56 6.0 NE 22 28 12 15 1012.3 1012.3 0.0
21/02:00pm 26.5 24.7 17.0 56 5.9 NE 22 28 12 15 1012.7 1012.7 0.0
21/01:30pm 26.9 25.4 16.8 54 6.3 NE 20 26 11 14 1013.2 1013.2 0.0
21/01:00pm 26.7 25.4 17.2 56 5.9 NE 20 30 11 16 1013.8 1013.8 0.0
21/12:30pm 26.4 25.1 16.9 56 5.9 NE 19 26 10 14 1014.5 1014.5 0.0
21/12:00pm 27.0 26.1 16.9 54 6.3 NE 17 24 9 13 1015.3 1015.3 0.0
21/11:30am 26.1 25.4 16.4 55 6.0 NE 15 20 8 11 1015.8 1015.8 0.0
21/11:00am 26.3 26.0 16.5 54 6.0 NE 13 20 7 11 1016.4 1016.4 0.0
21/10:30am 26.4 26.2 17.5 58 5.6 ENE 15 20 8 11 1016.6 1016.6 0.0
21/10:00am 25.6 25.6 15.3 53 6.2 NE 9 19 5 10 1016.6 1016.6 0.0
21/09:30am 25.6 25.4 16.7 58 5.5 ENE 13 19 7 10 1016.6 1016.6 0.0
21/09:00am 24.2 25.0 17.2 65 4.3 NE 9 17 5 9 1016.8 1016.8 0.0
21/08:30am 24.2 23.8 17.2 65 4.3 ENE 15 20 8 11 1016.9 1016.9 0.0
21/08:00am 24.0 24.9 17.5 67 4.0 ENE 9 15 5 8 1016.6 1016.6 0.0
21/07:30am 22.4 23.5 18.0 76 2.7 E 9 13 5 7 1016.5 1016.5 0.0
21/07:00am 21.1 24.0 18.1 83 1.9 CALM 0 0 0 0 1016.5 1016.5 0.0

Other Formats:

Comma delimited format used in spreadsheet applications
http://www.bom.gov.au/fwo/IDQ60801/IDQ60801.94381.axf

JavaScript Object Notation format (JSON) in row-major order
http://www.bom.gov.au/fwo/IDQ60801/IDQ60801.94381.json